• Join FlightAware (Why Join?)
  • Login
  • US Flag 
02:16AM EST


 

Airport Tracker/Info


-or-


 

Live Flight TrackerFlight Track Log ✈ KLM1199 ✈ 07-Jul-2013 ✈ EHAM / AMS - ENZV / SVG

Flight Track Log - Related Links

Times and Time Zones

All times are in EDT time to prevent confusion due to time zone crossing. See the KLM1199 flight status page for this flight to view local times or setup timezone preferences in your user account.

Time Position Orientation Groundspeed Altitude Reporting Facility
EDT Latitude Longitude Course Direction KTS MPH feet Rate Location/Type
04:08AM 52.4225 4.7174 North 1 1 3,200  Level FlightAware UK
04:09AM 52.4790 4.7248 North 1 1 5,000 3,000 Climbing FlightAware UK
04:11AM 52.5944 4.8419 32° Northeast 1 1 11,300 3,120 Climbing FlightAware UK
04:12AM 52.6455 4.8471 North 1 1 12,900 2,760 Climbing FlightAware UK
04:12AM 52.6855 4.8514 North 1 1 14,400 2,760 Climbing FlightAware UK
04:13AM 52.7363 4.8570 North 316 364 16,000 2,220 Climbing FlightAware UK
04:14AM 52.8832 4.8733 North 358 412 19,300 2,040 Climbing FlightAware UK
04:15AM 52.9325 4.8788 North 1 1 20,400 2,220 Climbing FlightAware UK
04:16AM 53.0143 4.8877 North 1 1 22,200 2,220 Climbing FlightAware UK
04:17AM 53.1481 4.9027 North 396 456 25,100 2,100 Climbing FlightAware UK
04:17AM 53.2010 4.9084 North 398 458 26,000 1,620 Climbing FlightAware UK
04:18AM 53.2633 4.9155 North 406 467 26,900 1,560 Climbing FlightAware UK
04:19AM 53.3380 4.9239 North 416 479 28,100 1,560 Climbing FlightAware UK
04:19AM 53.4136 4.9323 North 418 481 29,100 1,200 Climbing FlightAware UK
04:21AM 53.5589 4.9488 North 430 495 30,500 1,020 Climbing FlightAware UK
04:21AM 53.6164 4.9553 North 432 497 31,000 960 Climbing FlightAware UK
04:22AM 53.7094 4.9657 North 440 506 31,800 960 Climbing FlightAware UK
04:23AM 53.7787 4.9741 North 444 511 32,400 1,140 Climbing FlightAware UK
04:23AM 53.8491 4.9822 North 440 506 33,200 1,260 Climbing FlightAware UK
04:24AM 53.9427 4.9928 North 436 502 34,200 1,020 Climbing FlightAware UK
04:25AM 54.0125 5.0007 North 436 502 34,700 900 Climbing FlightAware UK
04:25AM 54.0823 5.0088 North 436 502 35,300 960 Climbing FlightAware UK
04:26AM 54.1405 5.0156 North 434 499 35,800 900 Climbing FlightAware UK
04:26AM 54.2330 5.0266 North 430 495 36,500 720 Climbing FlightAware UK
04:28AM 54.3602 5.0394 North 430 495 37,200 600 Climbing FlightAware UK
04:28AM 54.4421 5.0428 North 432 497 37,600 540 Climbing FlightAware UK
04:29AM 54.5004 5.0462 North 430 495 37,900 480 Climbing FlightAware UK
04:30AM 54.6751 5.0577 North 428 493 38,600 360 Climbing FlightAware UK
04:31AM 54.7335 5.0617 North 430 495 38,700 240 Climbing FlightAware UK
04:31AM 54.8032 5.0667 North 430 495 38,900 240 Climbing FlightAware UK
04:32AM 54.8620 5.0706 North 432 497 39,000 60 Climbing FlightAware UK
04:32AM 54.9207 5.0753 North 438 504 39,000  Level FlightAware UK
04:33AM 54.9806 5.0795 North 444 511 39,000  Level FlightAware UK
04:34AM 55.1156 5.0889 North 448 516 39,000  Level FlightAware UK
04:35AM 55.1894 5.0944 North 448 516 39,000  Level FlightAware UK
04:35AM 55.2640 5.0990 North 448 516 39,000  Level FlightAware UK
04:36AM 55.3265 5.1024 North 448 516 39,000  Level FlightAware UK
04:36AM 55.4014 5.1067 North 450 518 39,000  Level FlightAware UK
04:37AM 55.4760 5.1120 North 450 518 39,000  Level FlightAware UK
04:37AM 55.5383 5.1167 North 450 518 39,000  Level FlightAware UK
04:38AM 55.6007 5.1214 North 450 518 39,000  Level FlightAware UK
04:38AM 55.6627 5.1268 North 450 518 39,000  Level FlightAware UK
04:40AM 55.8898 5.1415 North 450 518 39,000  Level FlightAware UK
04:41AM 55.9528 5.1469 North 1 1 39,000  Level FlightAware UK
04:42AM 56.1686 5.1615 North 1 1 39,000  Level FlightAware UK
04:43AM 56.2446 5.1671 North 1 1 39,000  Level FlightAware UK
04:44AM 56.3209 5.1720 North 1 1 39,000  Level FlightAware UK
04:46AM 56.4796 5.1991 North  Level Estimated
04:53AM 57.0399 5.2965 North  Level Estimated
04:54AM 57.1199 5.3107 North  Level Estimated
04:55AM 57.1999 5.3249 North  Level Estimated
04:56AM 57.2800 5.3392 North  Level Estimated
04:57AM 57.3600 5.3535 North  Level Estimated
04:58AM 57.4400 5.3679 North  Level Estimated
04:59AM 57.5200 5.3824 North  Level Estimated
05:00AM 57.6001 5.3969 North  Level Estimated
05:01AM 57.6801 5.4115 North  Level Estimated
05:02AM 57.7601 5.4262 North  Level Estimated
05:03AM 57.8401 5.4409 North  Level Estimated
05:04AM 57.9201 5.4557 North  Level Estimated
05:05AM 58.0001 5.4706 North  Level Estimated
05:06AM 58.0801 5.4855 North  Level Estimated
05:07AM 58.1601 5.5005 North  Level Estimated
05:08AM 58.2402 5.5155 North  Level Estimated
05:09AM 58.3202 5.5306 North  Level Estimated
05:10AM 58.4002 5.5458 North  Level Estimated
05:11AM 58.4802 5.5611 North  Level Estimated
05:12AM 58.5602 5.5764 North  Level Estimated
05:13AM 58.6443 5.5926 North  Level Estimated
05:14AM 58.7284 5.6089 North  Level Estimated
05:15AM 58.8125 5.6252 North  Level Estimated